sensor_id;sensor_type;location;lat;lon;timestamp;pressure;altitude;pressure_sealevel;temperature;humidity
73429;BME280;61643;49.564;17.412;2023-08-31T00:02:20;97458.78;;;14.41;100.00
73429;BME280;61643;49.564;17.412;2023-08-31T00:04:46;97444.56;;;14.35;100.00
73429;BME280;61643;49.564;17.412;2023-08-31T00:07:12;97449.97;;;14.35;100.00
73429;BME280;61643;49.564;17.412;2023-08-31T00:09:38;97451.63;;;14.31;100.00
73429;BME280;61643;49.564;17.412;2023-08-31T00:12:05;97448.72;;;14.27;100.00
73429;BME280;61643;49.564;17.412;2023-08-31T00:14:31;97447.44;;;14.25;100.00
73429;BME280;61643;49.564;17.412;2023-08-31T00:16:58;97449.53;;;14.28;100.00
73429;BME280;61643;49.564;17.412;2023-08-31T00:19:24;97446.00;;;14.27;100.00
73429;BME280;61643;49.564;17.412;2023-08-31T00:21:50;97449.81;;;14.26;100.00
73429;BME280;61643;49.564;17.412;2023-08-31T00:24:16;97442.91;;;14.20;100.00
73429;BME280;61643;49.564;17.412;2023-08-31T00:26:43;97453.00;;;14.15;100.00
73429;BME280;61643;49.564;17.412;2023-08-31T00:29:10;97446.66;;;13.92;100.00
73429;BME280;61643;49.564;17.412;2023-08-31T00:31:42;97456.78;;;14.00;100.00
73429;BME280;61643;49.564;17.412;2023-08-31T00:34:10;97451.97;;;13.97;100.00
73429;BME280;61643;49.564;17.412;2023-08-31T00:36:43;97465.81;;;13.96;100.00
73429;BME280;61643;49.564;17.412;2023-08-31T00:39:09;97459.16;;;13.88;100.00
73429;BME280;61643;49.564;17.412;2023-08-31T00:41:37;97460.75;;;13.89;100.00
73429;BME280;61643;49.564;17.412;2023-08-31T00:44:03;97467.56;;;13.87;100.00
73429;BME280;61643;49.564;17.412;2023-08-31T00:46:34;97466.69;;;13.91;100.00
73429;BME280;61643;49.564;17.412;2023-08-31T00:49:00;97465.16;;;13.85;100.00
73429;BME280;61643;49.564;17.412;2023-08-31T00:51:27;97459.75;;;13.85;100.00
73429;BME280;61643;49.564;17.412;2023-08-31T00:53:53;97465.72;;;13.82;100.00
73429;BME280;61643;49.564;17.412;2023-08-31T00:56:20;97465.94;;;13.86;100.00
73429;BME280;61643;49.564;17.412;2023-08-31T00:58:47;97470.56;;;13.85;100.00
73429;BME280;61643;49.564;17.412;2023-08-31T01:06:20;97473.47;;;13.56;100.00
73429;BME280;61643;49.564;17.412;2023-08-31T01:08:59;97469.59;;;13.62;100.00
73429;BME280;61643;49.564;17.412;2023-08-31T01:11:45;97471.25;;;13.58;100.00
73429;BME280;61643;49.564;17.412;2023-08-31T01:14:18;97472.28;;;13.62;100.00
73429;BME280;61643;49.564;17.412;2023-08-31T01:16:48;97468.78;;;13.62;100.00
73429;BME280;61643;49.564;17.412;2023-08-31T01:19:32;97477.09;;;13.65;100.00
73429;BME280;61643;49.564;17.412;2023-08-31T01:22:09;97472.28;;;13.62;100.00
73429;BME280;61643;49.564;17.412;2023-08-31T01:24:37;97480.69;;;13.61;100.00
73429;BME280;61643;49.564;17.412;2023-08-31T01:27:04;97467.47;;;13.59;100.00
73429;BME280;61643;49.564;17.412;2023-08-31T01:29:30;97456.44;;;13.56;100.00
73429;BME280;61643;49.564;17.412;2023-08-31T01:31:56;97452.41;;;13.53;100.00
73429;BME280;61643;49.564;17.412;2023-08-31T01:34:22;97469.97;;;13.56;100.00
73429;BME280;61643;49.564;17.412;2023-08-31T01:36:53;97471.84;;;13.55;100.00
73429;BME280;61643;49.564;17.412;2023-08-31T01:39:41;97482.72;;;13.50;100.00
73429;BME280;61643;49.564;17.412;2023-08-31T01:42:12;97474.03;;;13.53;100.00
73429;BME280;61643;49.564;17.412;2023-08-31T01:44:39;97466.66;;;13.40;100.00
73429;BME280;61643;49.564;17.412;2023-08-31T01:47:07;97475.06;;;13.39;100.00
73429;BME280;61643;49.564;17.412;2023-08-31T01:49:37;97484.63;;;13.50;100.00
73429;BME280;61643;49.564;17.412;2023-08-31T01:52:03;97494.88;;;13.53;100.00
73429;BME280;61643;49.564;17.412;2023-08-31T01:54:29;97479.97;;;13.55;100.00
73429;BME280;61643;49.564;17.412;2023-08-31T01:56:55;97484.13;;;13.29;100.00
73429;BME280;61643;49.564;17.412;2023-08-31T01:59:21;97485.44;;;13.31;100.00
73429;BME280;61643;49.564;17.412;2023-08-31T02:01:47;97490.78;;;13.37;100.00
73429;BME280;61643;49.564;17.412;2023-08-31T02:04:13;97491.16;;;13.49;100.00
73429;BME280;61643;49.564;17.412;2023-08-31T02:06:39;97499.69;;;13.56;100.00
73429;BME280;61643;49.564;17.412;2023-08-31T02:09:06;97499.38;;;13.57;100.00
73429;BME280;61643;49.564;17.412;2023-08-31T02:11:32;97497.00;;;13.56;100.00
73429;BME280;61643;49.564;17.412;2023-08-31T02:14:01;97495.09;;;13.56;100.00
73429;BME280;61643;49.564;17.412;2023-08-31T02:16:28;97496.47;;;13.54;100.00
73429;BME280;61643;49.564;17.412;2023-08-31T02:18:54;97499.25;;;13.49;100.00
73429;BME280;61643;49.564;17.412;2023-08-31T02:21:20;97508.53;;;13.43;100.00
73429;BME280;61643;49.564;17.412;2023-08-31T02:23:46;97508.66;;;13.32;100.00
73429;BME280;61643;49.564;17.412;2023-08-31T02:26:12;97504.50;;;13.40;100.00
73429;BME280;61643;49.564;17.412;2023-08-31T02:28:38;97496.91;;;13.42;100.00
73429;BME280;61643;49.564;17.412;2023-08-31T02:31:04;97493.75;;;13.35;100.00
73429;BME280;61643;49.564;17.412;2023-08-31T02:33:30;97503.28;;;13.51;100.00
73429;BME280;61643;49.564;17.412;2023-08-31T02:35:56;97500.72;;;13.60;100.00
73429;BME280;61643;49.564;17.412;2023-08-31T02:38:23;97508.69;;;13.70;100.00
73429;BME280;61643;49.564;17.412;2023-08-31T02:40:49;97507.00;;;13.74;100.00
73429;BME280;61643;49.564;17.412;2023-08-31T02:43:15;97504.34;;;13.69;100.00
73429;BME280;61643;49.564;17.412;2023-08-31T02:45:41;97502.16;;;13.71;100.00
73429;BME280;61643;49.564;17.412;2023-08-31T02:48:07;97510.78;;;13.73;100.00
73429;BME280;61643;49.564;17.412;2023-08-31T02:50:34;97514.38;;;13.68;100.00
73429;BME280;61643;49.564;17.412;2023-08-31T02:53:00;97506.78;;;13.70;100.00
73429;BME280;61643;49.564;17.412;2023-08-31T02:55:26;97509.75;;;13.69;100.00
73429;BME280;61643;49.564;17.412;2023-08-31T02:57:53;97515.97;;;13.69;100.00
73429;BME280;61643;49.564;17.412;2023-08-31T03:00:19;97510.84;;;13.68;100.00
73429;BME280;61643;49.564;17.412;2023-08-31T03:02:47;97523.06;;;13.65;100.00
73429;BME280;61643;49.564;17.412;2023-08-31T03:05:13;97520.16;;;13.62;100.00
73429;BME280;61643;49.564;17.412;2023-08-31T03:07:39;97520.16;;;13.62;100.00
73429;BME280;61643;49.564;17.412;2023-08-31T03:10:06;97524.75;;;13.61;100.00
73429;BME280;61643;49.564;17.412;2023-08-31T03:12:32;97515.59;;;13.57;100.00
73429;BME280;61643;49.564;17.412;2023-08-31T03:14:58;97525.84;;;13.60;100.00
73429;BME280;61643;49.564;17.412;2023-08-31T03:17:23;97519.06;;;13.63;100.00
73429;BME280;61643;49.564;17.412;2023-08-31T03:19:49;97523.94;;;13.61;100.00
73429;BME280;61643;49.564;17.412;2023-08-31T03:22:15;97523.66;;;13.62;100.00
73429;BME280;61643;49.564;17.412;2023-08-31T03:24:41;97527.97;;;13.63;100.00
73429;BME280;61643;49.564;17.412;2023-08-31T03:27:08;97523.44;;;13.59;100.00
73429;BME280;61643;49.564;17.412;2023-08-31T03:29:34;97522.91;;;13.57;100.00
73429;BME280;61643;49.564;17.412;2023-08-31T03:32:00;97527.22;;;13.58;100.00
73429;BME280;61643;49.564;17.412;2023-08-31T03:34:31;97530.81;;;13.53;100.00
73429;BME280;61643;49.564;17.412;2023-08-31T03:36:58;97526.75;;;13.56;100.00
73429;BME280;61643;49.564;17.412;2023-08-31T03:39:24;97529.88;;;13.44;100.00
73429;BME280;61643;49.564;17.412;2023-08-31T03:41:51;97526.06;;;13.45;100.00
73429;BME280;61643;49.564;17.412;2023-08-31T03:44:17;97528.69;;;13.50;100.00
73429;BME280;61643;49.564;17.412;2023-08-31T03:46:43;97527.59;;;13.32;100.00
73429;BME280;61643;49.564;17.412;2023-08-31T03:49:09;97532.19;;;13.32;100.00
73429;BME280;61643;49.564;17.412;2023-08-31T03:51:35;97530.13;;;13.24;100.00
73429;BME280;61643;49.564;17.412;2023-08-31T03:54:01;97531.16;;;13.28;100.00
73429;BME280;61643;49.564;17.412;2023-08-31T03:56:27;97538.47;;;13.27;100.00
73429;BME280;61643;49.564;17.412;2023-08-31T03:58:53;97531.91;;;13.34;100.00
73429;BME280;61643;49.564;17.412;2023-08-31T04:01:19;97540.25;;;13.37;100.00
73429;BME280;61643;49.564;17.412;2023-08-31T04:03:46;97544.03;;;13.36;100.00
73429;BME280;61643;49.564;17.412;2023-08-31T04:06:12;97539.22;;;13.33;100.00
73429;BME280;61643;49.564;17.412;2023-08-31T04:08:37;97552.66;;;13.38;100.00
73429;BME280;61643;49.564;17.412;2023-08-31T04:11:03;97546.44;;;13.38;100.00
73429;BME280;61643;49.564;17.412;2023-08-31T04:13:29;97555.06;;;13.40;100.00
73429;BME280;61643;49.564;17.412;2023-08-31T04:15:55;97552.34;;;13.40;100.00
73429;BME280;61643;49.564;17.412;2023-08-31T04:18:21;97550.75;;;13.39;100.00
73429;BME280;61643;49.564;17.412;2023-08-31T04:20:52;97554.75;;;13.22;100.00
73429;BME280;61643;49.564;17.412;2023-08-31T04:23:18;97557.81;;;13.16;100.00
73429;BME280;61643;49.564;17.412;2023-08-31T04:25:46;97554.53;;;13.19;100.00
73429;BME280;61643;49.564;17.412;2023-08-31T04:28:13;97556.41;;;13.18;100.00
73429;BME280;61643;49.564;17.412;2023-08-31T04:30:40;97556.16;;;13.20;100.00
73429;BME280;61643;49.564;17.412;2023-08-31T04:33:06;97553.13;;;13.21;100.00
73429;BME280;61643;49.564;17.412;2023-08-31T04:35:33;97544.00;;;13.17;100.00
73429;BME280;61643;49.564;17.412;2023-08-31T04:37:59;97553.34;;;13.25;100.00
73429;BME280;61643;49.564;17.412;2023-08-31T04:40:27;97555.91;;;13.35;100.00
73429;BME280;61643;49.564;17.412;2023-08-31T04:42:53;97559.22;;;13.32;100.00
73429;BME280;61643;49.564;17.412;2023-08-31T04:45:19;97553.22;;;13.35;100.00
73429;BME280;61643;49.564;17.412;2023-08-31T04:47:45;97552.34;;;13.40;100.00
73429;BME280;61643;49.564;17.412;2023-08-31T04:50:11;97553.34;;;13.49;100.00
73429;BME280;61643;49.564;17.412;2023-08-31T04:52:37;97570.94;;;13.65;100.00
73429;BME280;61643;49.564;17.412;2023-08-31T04:55:06;97567.06;;;13.71;100.00
73429;BME280;61643;49.564;17.412;2023-08-31T04:57:34;97565.09;;;13.58;100.00
73429;BME280;61643;49.564;17.412;2023-08-31T05:00:00;97574.22;;;13.62;100.00
73429;BME280;61643;49.564;17.412;2023-08-31T05:02:27;97573.38;;;13.66;100.00
73429;BME280;61643;49.564;17.412;2023-08-31T05:04:53;97568.59;;;13.58;100.00
73429;BME280;61643;49.564;17.412;2023-08-31T05:07:19;97557.41;;;13.46;100.00
73429;BME280;61643;49.564;17.412;2023-08-31T05:09:45;97570.44;;;13.63;100.00
73429;BME280;61643;49.564;17.412;2023-08-31T05:12:11;97572.78;;;13.69;100.00
73429;BME280;61643;49.564;17.412;2023-08-31T05:14:37;97568.66;;;13.72;100.00
73429;BME280;61643;49.564;17.412;2023-08-31T05:17:06;97574.50;;;13.79;100.00
73429;BME280;61643;49.564;17.412;2023-08-31T05:19:31;97576.19;;;13.75;100.00
73429;BME280;61643;49.564;17.412;2023-08-31T05:21:58;97574.88;;;13.72;100.00
73429;BME280;61643;49.564;17.412;2023-08-31T05:24:23;97573.06;;;13.87;100.00
73429;BME280;61643;49.564;17.412;2023-08-31T05:26:49;97570.94;;;13.84;100.00
73429;BME280;61643;49.564;17.412;2023-08-31T05:29:15;97575.63;;;13.78;100.00
73429;BME280;61643;49.564;17.412;2023-08-31T05:31:42;97586.22;;;13.93;100.00
73429;BME280;61643;49.564;17.412;2023-08-31T05:34:09;97586.31;;;13.88;100.00
73429;BME280;61643;49.564;17.412;2023-08-31T05:36:36;97589.88;;;14.02;100.00
73429;BME280;61643;49.564;17.412;2023-08-31T05:39:02;97602.75;;;14.10;100.00
73429;BME280;61643;49.564;17.412;2023-08-31T05:41:28;97604.34;;;14.11;100.00
73429;BME280;61643;49.564;17.412;2023-08-31T05:43:54;97598.91;;;14.11;100.00
73429;BME280;61643;49.564;17.412;2023-08-31T05:46:20;97611.84;;;14.14;100.00
73429;BME280;61643;49.564;17.412;2023-08-31T05:48:46;97617.81;;;14.16;100.00
73429;BME280;61643;49.564;17.412;2023-08-31T05:51:12;97605.88;;;14.17;100.00
73429;BME280;61643;49.564;17.412;2023-08-31T05:53:38;97598.56;;;14.18;100.00
73429;BME280;61643;49.564;17.412;2023-08-31T05:56:04;97608.50;;;14.22;100.00
73429;BME280;61643;49.564;17.412;2023-08-31T05:58:31;97611.19;;;14.22;100.00
73429;BME280;61643;49.564;17.412;2023-08-31T06:00:58;97614.22;;;14.21;100.00
73429;BME280;61643;49.564;17.412;2023-08-31T06:03:25;97616.50;;;14.14;100.00
73429;BME280;61643;49.564;17.412;2023-08-31T06:05:51;97623.22;;;14.35;100.00
73429;BME280;61643;49.564;17.412;2023-08-31T06:08:17;97617.84;;;14.49;100.00
73429;BME280;61643;49.564;17.412;2023-08-31T06:10:43;97625.19;;;14.62;100.00
73429;BME280;61643;49.564;17.412;2023-08-31T06:13:09;97625.75;;;14.77;100.00
73429;BME280;61643;49.564;17.412;2023-08-31T06:15:35;97625.06;;;14.86;100.00
73429;BME280;61643;49.564;17.412;2023-08-31T06:18:01;97625.78;;;14.91;100.00
73429;BME280;61643;49.564;17.412;2023-08-31T06:20:27;97628.81;;;15.03;100.00
73429;BME280;61643;49.564;17.412;2023-08-31T06:22:53;97620.28;;;15.10;100.00
73429;BME280;61643;49.564;17.412;2023-08-31T06:25:19;97625.50;;;15.06;100.00
73429;BME280;61643;49.564;17.412;2023-08-31T06:27:45;97619.47;;;15.23;100.00
73429;BME280;61643;49.564;17.412;2023-08-31T06:30:11;97620.47;;;15.00;100.00
73429;BME280;61643;49.564;17.412;2023-08-31T06:32:43;97615.88;;;15.00;100.00
73429;BME280;61643;49.564;17.412;2023-08-31T06:35:13;97631.31;;;15.13;100.00
73429;BME280;61643;49.564;17.412;2023-08-31T06:37:41;97629.22;;;15.10;100.00
73429;BME280;61643;49.564;17.412;2023-08-31T06:40:09;97634.25;;;15.31;100.00
73429;BME280;61643;49.564;17.412;2023-08-31T06:42:38;97640.59;;;15.26;100.00
73429;BME280;61643;49.564;17.412;2023-08-31T06:45:06;97639.09;;;15.34;100.00
73429;BME280;61643;49.564;17.412;2023-08-31T06:47:32;97645.69;;;15.41;100.00
73429;BME280;61643;49.564;17.412;2023-08-31T06:49:59;97645.41;;;15.43;100.00
73429;BME280;61643;49.564;17.412;2023-08-31T06:52:29;97654.03;;;15.45;100.00
73429;BME280;61643;49.564;17.412;2023-08-31T06:54:55;97648.31;;;15.46;100.00
73429;BME280;61643;49.564;17.412;2023-08-31T06:57:23;97643.19;;;15.45;100.00
73429;BME280;61643;49.564;17.412;2023-08-31T06:59:49;97653.34;;;15.53;100.00
73429;BME280;61643;49.564;17.412;2023-08-31T07:02:15;97649.06;;;15.52;100.00
73429;BME280;61643;49.564;17.412;2023-08-31T07:04:41;97658.97;;;15.56;100.00
73429;BME280;61643;49.564;17.412;2023-08-31T07:07:07;97658.69;;;15.58;100.00
73429;BME280;61643;49.564;17.412;2023-08-31T07:09:34;97659.91;;;15.65;100.00
73429;BME280;61643;49.564;17.412;2023-08-31T07:12:01;97674.66;;;15.73;100.00
73429;BME280;61643;49.564;17.412;2023-08-31T07:14:29;97671.53;;;15.80;100.00
73429;BME280;61643;49.564;17.412;2023-08-31T07:16:55;97673.41;;;15.93;100.00
73429;BME280;61643;49.564;17.412;2023-08-31T07:19:21;97675.91;;;16.03;100.00
73429;BME280;61643;49.564;17.412;2023-08-31T07:21:47;97682.53;;;16.10;100.00
73429;BME280;61643;49.564;17.412;2023-08-31T07:24:13;97675.72;;;16.13;100.00
73429;BME280;61643;49.564;17.412;2023-08-31T07:26:39;97668.84;;;16.15;100.00
73429;BME280;61643;49.564;17.412;2023-08-31T07:29:05;97669.44;;;16.26;100.00
73429;BME280;61643;49.564;17.412;2023-08-31T07:31:31;97675.22;;;16.33;100.00
73429;BME280;61643;49.564;17.412;2023-08-31T07:33:57;97679.06;;;16.32;100.00
73429;BME280;61643;49.564;17.412;2023-08-31T07:36:24;97676.53;;;16.36;100.00
73429;BME280;61643;49.564;17.412;2023-08-31T07:38:50;97679.13;;;16.41;100.00
73429;BME280;61643;49.564;17.412;2023-08-31T07:41:16;97682.84;;;16.45;100.00
73429;BME280;61643;49.564;17.412;2023-08-31T07:43:42;97685.84;;;16.43;100.00
73429;BME280;61643;49.564;17.412;2023-08-31T07:46:08;97691.47;;;16.47;100.00
73429;BME280;61643;49.564;17.412;2023-08-31T07:48:34;97699.19;;;16.53;100.00
73429;BME280;61643;49.564;17.412;2023-08-31T07:51:00;97699.00;;;16.50;100.00
73429;BME280;61643;49.564;17.412;2023-08-31T07:53:26;97695.31;;;16.59;100.00
73429;BME280;61643;49.564;17.412;2023-08-31T07:55:55;97701.09;;;16.66;100.00
73429;BME280;61643;49.564;17.412;2023-08-31T07:58:23;97692.63;;;16.68;100.00
73429;BME280;61643;49.564;17.412;2023-08-31T08:00:51;97700.25;;;16.80;100.00
73429;BME280;61643;49.564;17.412;2023-08-31T08:03:18;97690.72;;;16.91;100.00
73429;BME280;61643;49.564;17.412;2023-08-31T08:05:44;97689.84;;;17.04;100.00
73429;BME280;61643;49.564;17.412;2023-08-31T08:08:10;97690.22;;;17.11;100.00
73429;BME280;61643;49.564;17.412;2023-08-31T08:10:36;97685.88;;;17.10;100.00
73429;BME280;61643;49.564;17.412;2023-08-31T08:13:02;97690.22;;;17.11;100.00
73429;BME280;61643;49.564;17.412;2023-08-31T08:15:30;97695.22;;;17.17;100.00
73429;BME280;61643;49.564;17.412;2023-08-31T08:17:56;97704.34;;;17.21;100.00
73429;BME280;61643;49.564;17.412;2023-08-31T08:20:23;97712.06;;;17.28;100.00
73429;BME280;61643;49.564;17.412;2023-08-31T08:22:50;97715.59;;;17.29;100.00
73429;BME280;61643;49.564;17.412;2023-08-31T08:25:19;97717.31;;;17.25;100.00
73429;BME280;61643;49.564;17.412;2023-08-31T08:27:45;97713.97;;;17.28;100.00
73429;BME280;61643;49.564;17.412;2023-08-31T08:30:11;97713.97;;;17.28;100.00
73429;BME280;61643;49.564;17.412;2023-08-31T08:32:37;97725.34;;;17.30;100.00
73429;BME280;61643;49.564;17.412;2023-08-31T08:35:03;97727.75;;;17.31;100.00
73429;BME280;61643;49.564;17.412;2023-08-31T08:37:31;97729.22;;;17.37;100.00
73429;BME280;61643;49.564;17.412;2023-08-31T08:39:58;97721.25;;;17.41;100.00
73429;BME280;61643;49.564;17.412;2023-08-31T08:42:25;97718.34;;;17.37;100.00
73429;BME280;61643;49.564;17.412;2023-08-31T08:44:51;97723.97;;;17.41;100.00
73429;BME280;61643;49.564;17.412;2023-08-31T08:47:18;97719.19;;;17.46;100.00
73429;BME280;61643;49.564;17.412;2023-08-31T08:49:44;97721.94;;;17.55;100.00
73429;BME280;61643;49.564;17.412;2023-08-31T08:52:13;97719.66;;;17.40;100.00
73429;BME280;61643;49.564;17.412;2023-08-31T08:54:40;97717.41;;;17.42;100.00
73429;BME280;61643;49.564;17.412;2023-08-31T08:57:06;97716.59;;;17.41;100.00
73429;BME280;61643;49.564;17.412;2023-08-31T08:59:32;97716.78;;;17.45;100.00
73429;BME280;61643;49.564;17.412;2023-08-31T09:01:58;97715.13;;;17.57;100.00
73429;BME280;61643;49.564;17.412;2023-08-31T09:04:25;97720.59;;;17.66;100.00
73429;BME280;61643;49.564;17.412;2023-08-31T09:06:51;97716.75;;;17.67;100.00
73429;BME280;61643;49.564;17.412;2023-08-31T09:09:17;97722.25;;;17.76;100.00
73429;BME280;61643;49.564;17.412;2023-08-31T09:11:44;97718.84;;;17.70;100.00
73429;BME280;61643;49.564;17.412;2023-08-31T09:14:17;97724.78;;;17.72;100.00
73429;BME280;61643;49.564;17.412;2023-08-31T09:16:48;97718.88;;;17.79;100.00
73429;BME280;61643;49.564;17.412;2023-08-31T09:19:19;97712.81;;;17.82;100.00
73429;BME280;61643;49.564;17.412;2023-08-31T09:21:47;97726.28;;;17.95;100.00
73429;BME280;61643;49.564;17.412;2023-08-31T09:24:13;97725.81;;;18.02;100.00
73429;BME280;61643;49.564;17.412;2023-08-31T09:26:45;97716.88;;;18.10;100.00
73429;BME280;61643;49.564;17.412;2023-08-31T09:29:12;97719.63;;;18.18;100.00
73429;BME280;61643;49.564;17.412;2023-08-31T09:31:41;97724.59;;;18.25;100.00
73429;BME280;61643;49.564;17.412;2023-08-31T09:34:07;97724.78;;;18.29;100.00
73429;BME280;61643;49.564;17.412;2023-08-31T09:36:33;97721.41;;;18.32;100.00
73429;BME280;61643;49.564;17.412;2023-08-31T09:38:59;97725.56;;;18.38;99.57
73429;BME280;61643;49.564;17.412;2023-08-31T09:41:25;97733.75;;;18.46;98.96
73429;BME280;61643;49.564;17.412;2023-08-31T09:43:51;97734.63;;;18.55;99.31
73429;BME280;61643;49.564;17.412;2023-08-31T09:46:17;97743.75;;;18.77;100.00
73429;BME280;61643;49.564;17.412;2023-08-31T09:48:44;97741.47;;;18.96;98.24
73429;BME280;61643;49.564;17.412;2023-08-31T09:51:10;97737.94;;;19.12;98.38
73429;BME280;61643;49.564;17.412;2023-08-31T09:53:37;97734.56;;;19.15;96.21
73429;BME280;61643;49.564;17.412;2023-08-31T09:56:07;97740.84;;;19.07;94.69
73429;BME280;61643;49.564;17.412;2023-08-31T09:58:33;97735.88;;;19.09;96.85
73429;BME280;61643;49.564;17.412;2023-08-31T10:00:59;97740.22;;;18.93;92.08
73429;BME280;61643;49.564;17.412;2023-08-31T10:03:27;97744.06;;;19.09;97.40
73429;BME280;61643;49.564;17.412;2023-08-31T10:05:54;97737.16;;;19.12;100.00
73429;BME280;61643;49.564;17.412;2023-08-31T10:08:20;97739.72;;;19.17;100.00
73429;BME280;61643;49.564;17.412;2023-08-31T10:10:46;97740.38;;;18.88;98.16
73429;BME280;61643;49.564;17.412;2023-08-31T10:13:13;97732.84;;;18.77;99.78
73429;BME280;61643;49.564;17.412;2023-08-31T10:15:41;97731.56;;;18.74;97.82
73429;BME280;61643;49.564;17.412;2023-08-31T10:18:08;97730.94;;;18.68;95.96
73429;BME280;61643;49.564;17.412;2023-08-31T10:20:34;97725.63;;;18.63;95.53
73429;BME280;61643;49.564;17.412;2023-08-31T10:23:05;97740.53;;;18.75;95.91
73429;BME280;61643;49.564;17.412;2023-08-31T10:26:01;97738.97;;;18.74;97.11
73429;BME280;61643;49.564;17.412;2023-08-31T10:28:29;97744.06;;;18.84;92.36
73429;BME280;61643;49.564;17.412;2023-08-31T10:31:16;97734.59;;;18.90;99.19
73429;BME280;61643;49.564;17.412;2023-08-31T10:33:47;97728.50;;;19.01;98.81
73429;BME280;61643;49.564;17.412;2023-08-31T10:36:20;97728.81;;;19.08;94.32
73429;BME280;61643;49.564;17.412;2023-08-31T10:39:10;97726.28;;;18.95;95.31
73429;BME280;61643;49.564;17.412;2023-08-31T10:41:37;97726.56;;;18.85;96.55
73429;BME280;61643;49.564;17.412;2023-08-31T10:44:23;97759.00;;;18.69;100.00
73429;BME280;61643;49.564;17.412;2023-08-31T10:46:51;97776.41;;;18.34;100.00
73429;BME280;61643;49.564;17.412;2023-08-31T10:49:23;97796.50;;;17.45;100.00
73429;BME280;61643;49.564;17.412;2023-08-31T10:52:14;97821.06;;;16.73;100.00
73429;BME280;61643;49.564;17.412;2023-08-31T10:54:40;97815.38;;;16.34;100.00
73429;BME280;61643;49.564;17.412;2023-08-31T10:57:06;97817.47;;;16.10;100.00
73429;BME280;61643;49.564;17.412;2023-08-31T10:59:42;97808.84;;;15.94;100.00
73429;BME280;61643;49.564;17.412;2023-08-31T11:02:08;97817.28;;;15.93;100.00
73429;BME280;61643;49.564;17.412;2023-08-31T11:04:55;97816.28;;;16.02;100.00
73429;BME280;61643;49.564;17.412;2023-08-31T11:07:25;97830.34;;;16.04;100.00
73429;BME280;61643;49.564;17.412;2023-08-31T11:09:52;97831.75;;;16.15;100.00
73429;BME280;61643;49.564;17.412;2023-08-31T11:12:22;97832.28;;;16.31;100.00
73429;BME280;61643;49.564;17.412;2023-08-31T11:14:48;97826.44;;;16.38;100.00
73429;BME280;61643;49.564;17.412;2023-08-31T11:17:14;97820.38;;;16.41;100.00
73429;BME280;61643;49.564;17.412;2023-08-31T11:19:41;97810.22;;;16.33;100.00
73429;BME280;61643;49.564;17.412;2023-08-31T11:22:07;97823.38;;;16.39;100.00
73429;BME280;61643;49.564;17.412;2023-08-31T11:24:35;97822.50;;;16.57;100.00
73429;BME280;61643;49.564;17.412;2023-08-31T11:27:01;97814.84;;;16.59;100.00
73429;BME280;61643;49.564;17.412;2023-08-31T11:29:30;97819.97;;;16.61;100.00
73429;BME280;61643;49.564;17.412;2023-08-31T11:31:56;97817.16;;;16.66;100.00
73429;BME280;61643;49.564;17.412;2023-08-31T11:34:23;97813.63;;;16.65;100.00
73429;BME280;61643;49.564;17.412;2023-08-31T11:36:49;97824.19;;;16.67;100.00
73429;BME280;61643;49.564;17.412;2023-08-31T11:39:17;97811.81;;;16.75;100.00
73429;BME280;61643;49.564;17.412;2023-08-31T11:41:43;97812.00;;;16.78;100.00
73429;BME280;61643;49.564;17.412;2023-08-31T11:44:11;97809.94;;;16.84;100.00
73429;BME280;61643;49.564;17.412;2023-08-31T11:46:39;97807.03;;;16.80;100.00
73429;BME280;61643;49.564;17.412;2023-08-31T11:49:07;97812.47;;;16.80;100.00
73429;BME280;61643;49.564;17.412;2023-08-31T11:51:34;97808.16;;;16.79;100.00
73429;BME280;61643;49.564;17.412;2023-08-31T11:54:01;97814.34;;;16.93;100.00
73429;BME280;61643;49.564;17.412;2023-08-31T11:56:41;97800.75;;;17.15;100.00
73429;BME280;61643;49.564;17.412;2023-08-31T11:59:09;97796.03;;;17.21;100.00
73429;BME280;61643;49.564;17.412;2023-08-31T12:01:39;97796.59;;;17.40;100.00
73429;BME280;61643;49.564;17.412;2023-08-31T12:04:16;97800.09;;;17.32;100.00
73429;BME280;61643;49.564;17.412;2023-08-31T12:06:46;97808.91;;;17.38;100.00
73429;BME280;61643;49.564;17.412;2023-08-31T12:09:16;97802.75;;;17.46;100.00
73429;BME280;61643;49.564;17.412;2023-08-31T12:11:52;97798.13;;;17.55;100.00
73429;BME280;61643;49.564;17.412;2023-08-31T12:14:26;97799.16;;;17.59;100.00
73429;BME280;61643;49.564;17.412;2023-08-31T12:17:00;97796.13;;;17.60;100.00
73429;BME280;61643;49.564;17.412;2023-08-31T12:19:27;97803.31;;;17.56;100.00
73429;BME280;61643;49.564;17.412;2023-08-31T12:21:54;97797.25;;;17.59;100.00
73429;BME280;61643;49.564;17.412;2023-08-31T12:24:20;97794.66;;;17.32;100.00
73429;BME280;61643;49.564;17.412;2023-08-31T12:26:48;97804.59;;;17.37;100.00
73429;BME280;61643;49.564;17.412;2023-08-31T12:29:14;97800.13;;;17.41;100.00
73429;BME280;61643;49.564;17.412;2023-08-31T12:31:40;97791.72;;;17.51;100.00
73429;BME280;61643;49.564;17.412;2023-08-31T12:34:06;97795.50;;;17.63;100.00
73429;BME280;61643;49.564;17.412;2023-08-31T12:36:33;97796.25;;;17.86;100.00
73429;BME280;61643;49.564;17.412;2023-08-31T12:38:59;97794.06;;;18.05;100.00
73429;BME280;61643;49.564;17.412;2023-08-31T12:41:33;97806.97;;;18.22;100.00
73429;BME280;61643;49.564;17.412;2023-08-31T12:43:59;97802.03;;;18.33;100.00
73429;BME280;61643;49.564;17.412;2023-08-31T12:46:25;97800.41;;;18.32;100.00
73429;BME280;61643;49.564;17.412;2023-08-31T12:48:52;97794.81;;;18.37;100.00